Time;durP1;ratioP1;P1;durP2;ratioP2;P2;SDS_P1;SDS_P2;PMS_P1;PMS_P2;Temp;Humidity;BMP_temperature;BMP_pressure;BME280_temperature;BME280_humidity;BME280_pressure;Samples;Min_cycle;Max_cycle;Signal;HPM_P1;HPM_P2
2022/01/22 00:00:43;;;;;;;25.75;4.50;;;5.70;99.90;;;;;;5061410;28;20036;-49
2022/01/22 00:03:09;;;;;;;21.60;3.88;;;5.70;99.90;;;;;;5071721;28;20045;-52
2022/01/22 00:05:36;;;;;;;23.77;4.32;;;5.70;99.90;;;;;;5070148;28;20123;-49
2022/01/22 00:08:02;;;;;;;31.98;4.50;;;5.70;99.90;;;;;;5060948;28;20123;-49
2022/01/22 00:10:28;;;;;;;23.42;3.95;;;5.70;99.90;;;;;;5065854;28;20135;-51
2022/01/22 00:15:26;;;;;;;22.38;4.03;;;5.80;99.90;;;;;;5055626;28;20157;-49
2022/01/22 00:17:52;;;;;;;29.25;4.07;;;5.70;99.90;;;;;;5054637;28;20083;-47
2022/01/22 00:20:21;;;;;;;27.77;4.40;;;5.80;99.90;;;;;;5072688;28;20471;-47
2022/01/22 00:22:47;;;;;;;23.30;3.88;;;5.80;99.90;;;;;;5063576;28;20128;-50
2022/01/22 00:25:14;;;;;;;23.23;4.68;;;5.80;99.90;;;;;;5068212;28;20144;-51
2022/01/22 00:27:41;;;;;;;20.75;3.60;;;5.80;99.90;;;;;;5068615;28;20040;-49
2022/01/22 00:30:11;;;;;;;25.58;4.05;;;5.80;99.90;;;;;;5070159;28;20060;-52
2022/01/22 00:32:37;;;;;;;25.10;3.65;;;5.80;99.90;;;;;;5065233;28;20049;-49
2022/01/22 00:35:04;;;;;;;23.83;3.90;;;5.80;99.90;;;;;;5066438;28;20593;-49
2022/01/22 00:37:30;;;;;;;21.33;4.07;;;5.80;99.90;;;;;;5071714;28;21285;-48
2022/01/22 00:39:56;;;;;;;18.98;4.43;;;5.80;99.90;;;;;;5071850;28;20045;-46
2022/01/22 00:42:23;;;;;;;16.95;3.90;;;5.90;99.90;;;;;;5079142;28;20051;-45
2022/01/22 00:44:51;;;;;;;24.02;3.85;;;5.90;99.90;;;;;;5069670;28;20052;-45
2022/01/22 00:47:18;;;;;;;15.73;3.50;;;5.80;99.90;;;;;;5069881;28;20040;-46
2022/01/22 00:49:44;;;;;;;22.85;4.20;;;5.80;99.90;;;;;;5057358;28;20112;-46
2022/01/22 00:52:09;;;;;;;18.95;3.78;;;5.90;99.90;;;;;;5054003;28;20424;-48
2022/01/22 00:54:35;;;;;;;21.50;4.25;;;5.90;99.90;;;;;;5053476;28;20052;-46
2022/01/22 00:57:01;;;;;;;16.45;3.30;;;5.90;99.90;;;;;;5063734;28;20033;-47
2022/01/22 00:59:26;;;;;;;18.60;4.10;;;5.90;99.90;;;;;;5068520;28;20122;-47
2022/01/22 01:01:52;;;;;;;28.60;4.03;;;5.90;99.90;;;;;;5062554;28;20064;-47
2022/01/22 01:04:18;;;;;;;21.23;3.92;;;5.90;99.90;;;;;;5068480;28;20044;-46
2022/01/22 01:06:44;;;;;;;22.08;4.45;;;5.90;99.90;;;;;;5071921;28;20029;-48
2022/01/22 01:09:10;;;;;;;20.02;3.85;;;5.90;99.90;;;;;;5057680;28;20128;-46
2022/01/22 01:11:46;;;;;;;20.17;3.97;;;5.90;99.90;;;;;;5071005;28;20488;-47
2022/01/22 01:14:17;;;;;;;20.70;4.72;;;5.90;99.90;;;;;;5059915;28;20837;-47
2022/01/22 01:16:57;;;;;;;22.77;4.25;;;5.90;99.90;;;;;;5071416;28;20076;-50
2022/01/22 01:33:10;;;;;;;23.60;3.78;;;6.00;99.90;;;;;;5064646;28;20055;-46
2022/01/22 01:35:38;;;;;;;32.00;4.68;;;6.00;99.90;;;;;;5059668;28;20049;-47
2022/01/22 01:38:04;;;;;;;;;;;6.00;99.90;;;;;;5070680;28;20053;-49
2022/01/22 01:40:32;;;;;;;23.08;3.60;;;6.00;99.90;;;;;;5070885;28;21441;-48
2022/01/22 01:45:23;;;;;;;29.88;3.95;;;6.00;99.90;;;;;;5053834;28;20053;-48
2022/01/22 01:47:57;;;;;;;24.65;4.00;;;6.10;99.90;;;;;;5062198;28;20125;-48
2022/01/22 01:50:23;;;;;;;24.25;4.25;;;6.10;99.90;;;;;;5066140;28;20040;-47
2022/01/22 01:53:03;;;;;;;18.55;4.00;;;6.10;99.90;;;;;;5055483;28;20072;-47
2022/01/22 01:58:15;;;;;;;23.85;4.95;;;6.10;99.90;;;;;;5055760;28;20143;-47
2022/01/22 02:00:40;;;;;;;25.05;4.18;;;6.10;99.90;;;;;;5058916;28;20101;-48
2022/01/22 02:03:08;;;;;;;25.42;4.57;;;6.10;99.90;;;;;;5065765;28;20048;-47
2022/01/22 02:05:35;;;;;;;29.65;5.00;;;6.10;99.90;;;;;;5068327;28;20088;-45
2022/01/22 02:08:01;;;;;;;28.80;5.10;;;6.10;99.90;;;;;;5064786;28;20123;-49
2022/01/22 02:10:30;;;;;;;30.25;4.10;;;6.10;99.90;;;;;;5070710;28;20072;-46
2022/01/22 02:23:46;;;;;;;25.48;3.72;;;6.10;99.90;;;;;;5061739;28;20106;-46
2022/01/22 02:26:14;;;;;;;24.45;4.18;;;6.10;99.90;;;;;;5068298;28;20049;-46
2022/01/22 02:28:40;;;;;;;26.15;3.75;;;6.10;99.90;;;;;;5058899;28;20123;-47
2022/01/22 02:31:14;;;;;;;24.42;4.35;;;6.10;99.90;;;;;;5065342;28;20124;-47
2022/01/22 02:36:30;;;;;;;15.85;3.60;;;6.20;99.90;;;;;;5058064;28;20056;-47
2022/01/22 02:39:07;;;;;;;16.58;3.40;;;6.20;99.90;;;;;;5069790;28;20044;-46
2022/01/22 02:41:35;;;;;;;12.25;3.15;;;6.20;99.90;;;;;;5068418;28;20073;-47
2022/01/22 02:44:01;;;;;;;15.73;3.60;;;6.20;99.90;;;;;;5065021;28;20045;-48
2022/01/22 02:46:27;;;;;;;15.38;3.42;;;6.20;99.90;;;;;;5068038;28;20440;-49
2022/01/22 02:48:55;;;;;;;17.02;3.80;;;6.20;99.90;;;;;;5070660;28;20040;-50
2022/01/22 02:51:25;;;;;;;15.77;3.92;;;6.20;99.90;;;;;;5060137;28;20517;-50
2022/01/22 02:53:54;;;;;;;14.35;3.45;;;;;;;;;;5060530;28;20040;-49
2022/01/22 02:56:22;;;;;;;15.05;3.20;;;;;;;;;;5063895;28;20080;-50
2022/01/22 02:58:48;;;;;;;16.52;3.35;;;;;;;;;;5067000;28;20044;-47
2022/01/22 03:01:16;;;;;;;19.88;2.80;;;;;;;;;;5068174;28;20050;-48
2022/01/22 03:03:43;;;;;;;16.65;3.22;;;;;;;;;;5065722;28;20467;-48
2022/01/22 03:06:09;;;;;;;13.30;2.90;;;;;;;;;;5067659;28;20379;-47
2022/01/22 03:08:35;;;;;;;14.77;3.45;;;;;;;;;;5062124;28;20136;-48
2022/01/22 03:11:05;;;;;;;15.15;3.20;;;;;;;;;;5062755;28;20533;-47
2022/01/22 03:19:03;;;;;;;12.63;3.13;;;;;;;;;;5066805;28;20044;-45
2022/01/22 03:21:38;;;;;;;18.92;3.65;;;;;;;;;;5062315;28;20352;-47
2022/01/22 03:29:37;;;;;;;11.90;3.00;;;;;;;;;;5064630;28;20466;-48
2022/01/22 03:32:04;;;;;;;8.02;2.40;;;;;;;;;;5064537;28;20044;-49
2022/01/22 03:34:37;;;;;;;11.43;2.83;;;;;;;;;;5069988;28;20490;-47
2022/01/22 03:37:03;;;;;;;13.93;2.70;;;;;;;;;;5065225;28;20507;-46
2022/01/22 03:39:29;;;;;;;9.73;2.53;;;;;;;;;;5068045;28;20044;-47
2022/01/22 03:41:55;;;;;;;12.45;2.63;;;;;;;;;;5070310;28;20051;-46
2022/01/22 03:44:21;;;;;;;6.75;2.00;;;;;;;;;;5063042;28;20079;-46
2022/01/22 03:46:47;;;;;;;6.90;1.85;;;;;;;;;;5058785;28;20048;-47
2022/01/22 03:49:16;;;;;;;5.85;1.90;;;;;;;;;;5069003;28;20044;-46
2022/01/22 03:51:42;;;;;;;9.48;1.80;;;;;;;;;;5066673;28;20056;-46
2022/01/22 03:54:08;;;;;;;7.95;1.63;;;;;;;;;;5069997;28;20044;-46
2022/01/22 03:56:34;;;;;;;6.97;1.85;;;;;;;;;;5066503;28;20483;-46
2022/01/22 03:59:02;;;;;;;4.35;1.60;;;;;;;;;;5063441;28;20040;-47
2022/01/22 04:03:59;;;;;;;6.38;1.90;;;;;;;;;;5058379;28;20045;-47
2022/01/22 04:09:08;;;;;;;9.30;2.13;;;;;;;;;;5060779;28;20053;-48
2022/01/22 04:11:38;;;;;;;10.30;2.25;;;;;;;;;;5062522;28;20064;-47
2022/01/22 04:14:06;;;;;;;12.52;2.15;;;;;;;;;;5060654;28;20441;-48
2022/01/22 04:16:35;;;;;;;11.25;2.00;;;;;;;;;;5058787;28;20048;-48
2022/01/22 04:24:51;;;;;;;13.68;2.50;;;;;;;;;;5071225;28;20140;-47
2022/01/22 04:27:22;;;;;;;13.30;2.42;;;;;;;;;;5072197;28;20044;-50
2022/01/22 04:29:48;;;;;;;11.65;2.50;;;;;;;;;;5072291;28;20044;-47
2022/01/22 04:32:14;;;;;;;8.93;2.38;;;;;;;;;;5070387;28;20045;-50
2022/01/22 04:34:40;;;;;;;10.10;2.38;;;;;;;;;;5071266;28;20043;-50
2022/01/22 04:37:07;;;;;;;9.95;2.63;;;;;;;;;;5073498;28;20059;-48
2022/01/22 04:39:33;;;;;;;8.38;2.20;;;;;;;;;;5068088;28;20105;-49
2022/01/22 04:41:59;;;;;;;7.40;2.10;;;;;;;;;;5073680;28;20040;-47
2022/01/22 04:44:29;;;;;;;7.57;2.20;;;;;;;;;;5073602;28;20469;-48
2022/01/22 04:47:13;;;;;;;9.02;2.40;;;;;;;;;;5073065;28;20049;-48
2022/01/22 04:55:01;;;;;;;8.27;2.20;;;;;;;;;;5057501;28;20045;-47
2022/01/22 04:57:28;;;;;;;5.68;2.00;;;;;;;;;;5069174;28;20075;-47
2022/01/22 04:59:55;;;;;;;5.43;2.30;;;;;;;;;;5069564;28;20044;-46
2022/01/22 05:02:21;;;;;;;4.78;1.98;;;;;;;;;;5061856;28;20048;-52
2022/01/22 05:04:47;;;;;;;7.72;2.35;;;;;;;;;;5067276;28;20076;-49
2022/01/22 05:07:13;;;;;;;5.30;2.15;;;;;;;;;;5067266;28;20129;-47
2022/01/22 05:09:39;;;;;;;8.63;1.95;;;;;;;;;;5058956;28;20079;-48
2022/01/22 05:12:06;;;;;;;7.78;2.00;;;;;;;;;;5063552;28;20096;-49
2022/01/22 05:14:32;;;;;;;5.77;2.10;;;;;;;;;;5060775;28;20045;-48
2022/01/22 05:17:00;;;;;;;3.85;1.75;;;;;;;;;;5064101;28;20307;-50
2022/01/22 05:19:37;;;;;;;5.18;1.83;;;;;;;;;;5062843;28;20053;-47
2022/01/22 05:22:20;;;;;;;4.95;1.83;;;;;;;;;;5070427;28;20103;-47
2022/01/22 05:24:51;;;;;;;5.68;1.73;;;;;;;;;;5057545;28;20045;-48
2022/01/22 05:30:01;;;;;;;4.40;2.13;;;;;;;;;;5067294;28;20040;-48
2022/01/22 05:32:37;;;;;;;5.97;1.90;;;;;;;;;;5063763;28;20044;-49
2022/01/22 05:37:48;;;;;;;4.30;1.60;;;;;;;;;;5068184;28;20059;-47
2022/01/22 05:40:14;;;;;;;3.65;1.88;;;;;;;;;;5071721;28;20506;-47
2022/01/22 05:42:40;;;;;;;5.10;1.90;;;;;;;;;;5062992;28;20114;-46
2022/01/22 05:45:06;;;;;;;2.97;1.65;;;;;;;;;;5062225;28;20125;-48
2022/01/22 05:47:32;;;;;;;5.03;1.58;;;;;;;;;;5069365;28;20059;-48
2022/01/22 05:50:00;;;;;;;5.68;1.90;;;;;;;;;;5073028;28;20129;-47
2022/01/22 05:52:37;;;;;;;7.15;2.03;;;;;;;;;;5073401;28;20062;-47
2022/01/22 05:55:25;;;;;;;7.65;2.00;;;;;;;;;;5068531;28;20553;-47
2022/01/22 06:00:36;;;;;;;6.60;2.17;;;;;;;;;;5068340;28;20457;-46
2022/01/22 06:03:02;;;;;;;6.45;1.70;;;;;;;;;;5060264;28;20041;-47
2022/01/22 06:05:28;;;;;;;4.95;1.85;;;;;;;;;;5056109;28;20098;-49
2022/01/22 06:07:54;;;;;;;4.20;1.90;;;;;;;;;;5065197;28;20437;-48
2022/01/22 06:10:26;;;;;;;3.15;1.77;;;;;;;;;;5071139;28;20037;-47
2022/01/22 06:15:19;;;;;;;4.93;2.10;;;;;;;;;;5069881;28;20056;-51
2022/01/22 06:17:45;;;;;;;5.20;2.00;;;;;;;;;;5065666;28;20044;-49
2022/01/22 06:20:15;;;;;;;4.53;1.73;;;;;;;;;;5069873;28;20501;-47
2022/01/22 06:22:41;;;;;;;8.10;2.22;;;;;;;;;;5058785;28;20041;-46
2022/01/22 06:25:07;;;;;;;12.07;2.40;;;;;;;;;;5059313;28;20128;-47
2022/01/22 06:27:33;;;;;;;4.03;2.35;;;;;;;;;;5066847;28;20133;-48
2022/01/22 06:29:59;;;;;;;9.48;2.78;;;;;;;;;;5069352;28;20367;-49
2022/01/22 06:32:25;;;;;;;7.00;2.38;;;;;;;;;;5062183;28;20048;-47
2022/01/22 06:34:51;;;;;;;6.70;2.45;;;;;;;;;;5063043;28;20445;-49
2022/01/22 06:37:17;;;;;;;5.55;2.45;;;;;;;;;;5068750;28;20068;-47
2022/01/22 06:42:31;;;;;;;10.25;2.75;;;;;;;;;;5057238;28;20144;-48
2022/01/22 06:44:58;;;;;;;7.45;2.80;;;;;;;;;;5065354;28;20127;-47
2022/01/22 06:47:24;;;;;;;6.60;2.35;;;;;;;;;;5062903;28;20082;-50
2022/01/22 06:49:50;;;;;;;7.25;2.63;;;;;;;;;;5072589;28;20121;-48
2022/01/22 06:52:16;;;;;;;7.70;2.97;;;;;;;;;;5060842;28;20486;-46
2022/01/22 06:54:44;;;;;;;6.82;2.70;;;;;;;;;;5063320;28;20483;-47
2022/01/22 06:57:10;;;;;;;9.52;2.83;;;;;;;;;;5067538;28;20056;-48
2022/01/22 06:59:36;;;;;;;10.20;3.05;;;;;;;;;;5066621;28;20127;-49
2022/01/22 07:02:03;;;;;;;7.95;3.08;;;;;;;;;;5060747;28;20040;-47
2022/01/22 07:04:36;;;;;;;10.63;3.30;;;;;;;;;;5058287;28;20037;-47
2022/01/22 07:07:03;;;;;;;8.60;3.33;;;;;;;;;;5057464;28;20372;-48
2022/01/22 07:09:29;;;;;;;12.90;3.65;;;;;;;;;;5058861;28;20544;-47
2022/01/22 07:11:55;;;;;;;9.65;3.67;;;;;;;;;;5055233;28;20091;-48
2022/01/22 07:14:21;;;;;;;11.73;3.50;;;;;;;;;;5067162;28;20080;-49
2022/01/22 07:16:47;;;;;;;10.23;3.58;;;;;;;;;;5057373;28;20053;-49
2022/01/22 07:19:18;;;;;;;13.27;3.60;;;;;;;;;;5052757;28;20427;-48
2022/01/22 07:21:47;;;;;;;12.50;4.13;;;;;;;;;;5059099;28;20047;-47
2022/01/22 07:24:27;;;;;;;10.85;3.67;;;;;;;;;;5057892;28;20085;-47
2022/01/22 07:26:56;;;;;;;12.20;3.65;;;;;;;;;;5062869;28;20373;-48
2022/01/22 07:29:22;;;;;;;10.55;3.28;;;;;;;;;;5061020;28;20436;-49
2022/01/22 07:31:48;;;;;;;8.63;2.85;;;;;;;;;;5054944;28;20033;-48
2022/01/22 07:34:15;;;;;;;8.85;2.95;;;;;;;;;;5064653;28;20056;-48
2022/01/22 07:36:41;;;;;;;5.57;2.40;;;;;;;;;;5067354;28;20416;-48
2022/01/22 07:39:07;;;;;;;7.03;2.90;;;;;;;;;;5070373;28;20513;-48
2022/01/22 07:41:33;;;;;;;7.60;2.42;;;;;;;;;;5068138;28;20445;-47
2022/01/22 07:43:59;;;;;;;7.18;2.70;;;;;;;;;;5055813;28;20071;-49
2022/01/22 07:46:25;;;;;;;6.53;2.83;;;;;;;;;;5057341;28;20049;-48
2022/01/22 07:48:51;;;;;;;6.82;2.72;;;;;;;;;;5068072;28;20045;-47
2022/01/22 07:51:18;;;;;;;6.93;2.85;;;;;;;;;;5079040;28;20392;-52
2022/01/22 07:53:47;;;;;;;6.18;2.72;;;;;;;;;;5065916;28;20127;-52
2022/01/22 07:56:14;;;;;;;5.85;2.50;;;;;;;;;;5069521;28;20097;-51
2022/01/22 07:58:40;;;;;;;7.63;2.75;;;;;;;;;;5059075;28;20048;-50
2022/01/22 08:01:06;;;;;;;7.35;2.20;;;;;;;;;;5058770;28;20036;-48
2022/01/22 08:03:33;;;;;;;7.65;2.20;;;;;;;;;;5061777;28;20442;-47
2022/01/22 08:05:59;;;;;;;4.10;2.20;;;;;;;;;;5057832;28;20048;-48
2022/01/22 08:08:25;;;;;;;5.88;2.08;;;;;;;;;;5067119;28;20041;-49
2022/01/22 08:10:52;;;;;;;3.75;2.00;;;;;;;;;;5059420;28;20041;-47
2022/01/22 08:13:19;;;;;;;7.47;2.20;;;;;;;;;;5066633;28;20053;-48
2022/01/22 08:15:45;;;;;;;7.55;2.10;;;;;;;;;;5071529;28;20049;-48
2022/01/22 08:18:11;;;;;;;6.78;1.75;;;;;;;;;;5055474;28;20041;-48
2022/01/22 08:20:37;;;;;;;4.65;2.10;;;;;;;;;;5055155;28;20067;-51
2022/01/22 08:23:03;;;;;;;4.70;1.80;;;;;;;;;;5064097;28;20048;-51
2022/01/22 08:25:31;;;;;;;4.90;2.10;;;;;;;;;;5074209;28;20047;-47
2022/01/22 08:30:35;;;;;;;6.65;1.90;;;;;;;;;;5056944;28;20049;-49
2022/01/22 08:35:53;;;;;;;5.65;2.08;;;;;;;;;;5064698;28;20128;-49
2022/01/22 08:38:20;;;;;;;4.25;1.70;;;;;;;;;;5067137;28;20044;-49
2022/01/22 08:40:46;;;;;;;4.78;1.73;;;;;;;;;;5062193;28;20033;-52
2022/01/22 08:43:12;;;;;;;4.85;1.90;;;;;;;;;;5069709;28;20041;-52
2022/01/22 08:45:39;;;;;;;4.22;1.60;;;;;;;;;;5056742;28;20045;-52
2022/01/22 08:48:05;;;;;;;3.53;1.90;;;;;;;;;;5055855;28;20076;-49
2022/01/22 08:50:33;;;;;;;4.18;1.48;;;;;;;;;;5070078;28;20083;-49
2022/01/22 08:52:59;;;;;;;4.78;1.92;;;;;;;;;;5058315;28;20517;-50
2022/01/22 08:55:25;;;;;;;4.82;2.28;;;;;;;;;;5070762;28;20043;-50
2022/01/22 08:57:51;;;;;;;4.47;1.73;;;6.50;99.90;;;;;;5059664;28;20119;-48
2022/01/22 09:00:20;;;;;;;5.13;1.73;;;6.60;99.90;;;;;;5063457;28;20412;-50
2022/01/22 09:02:47;;;;;;;7.90;1.60;;;6.60;99.90;;;;;;5079587;28;20044;-49
2022/01/22 09:05:16;;;;;;;5.15;1.92;;;6.50;99.90;;;;;;5064476;28;20040;-54
2022/01/22 09:07:42;;;;;;;3.97;1.75;;;6.50;99.90;;;;;;5057808;28;20045;-49
2022/01/22 09:10:08;;;;;;;5.13;1.80;;;6.50;99.90;;;;;;5059740;28;20040;-50
2022/01/22 09:12:34;;;;;;;2.53;1.40;;;6.60;99.90;;;;;;5071799;28;20041;-51
2022/01/22 09:14:59;;;;;;;3.75;1.60;;;6.60;99.90;;;;;;5069954;28;20045;-48
2022/01/22 09:17:25;;;;;;;5.30;1.55;;;6.60;99.90;;;;;;5072066;28;20047;-48
2022/01/22 09:19:56;;;;;;;5.10;1.77;;;6.60;99.90;;;;;;5054532;28;20086;-52
2022/01/22 09:22:22;;;;;;;3.75;1.70;;;6.60;99.90;;;;;;5068331;28;20419;-47
2022/01/22 09:24:48;;;;;;;5.57;2.35;;;6.60;99.90;;;;;;5058988;28;20101;-52
2022/01/22 09:27:16;;;;;;;3.75;1.70;;;6.60;99.90;;;;;;5063875;28;20044;-48
2022/01/22 09:29:42;;;;;;;5.00;1.93;;;6.60;99.90;;;;;;5066041;28;20150;-50
2022/01/22 09:32:08;;;;;;;5.40;2.05;;;6.60;99.90;;;;;;5059643;28;20322;-53
2022/01/22 09:34:33;;;;;;;4.50;1.88;;;6.60;99.90;;;;;;5068674;28;20398;-51
2022/01/22 09:36:59;;;;;;;6.32;2.20;;;6.60;99.90;;;;;;5067286;28;20490;-50
2022/01/22 09:39:25;;;;;;;5.45;2.40;;;6.60;99.90;;;;;;5071664;28;20051;-49
2022/01/22 09:41:50;;;;;;;5.30;2.40;;;6.60;99.90;;;;;;5066738;28;20039;-51
2022/01/22 09:44:16;;;;;;;8.38;2.38;;;6.60;99.90;;;;;;5073541;28;20162;-49
2022/01/22 09:46:43;;;;;;;4.35;2.10;;;6.60;99.90;;;;;;5063344;28;20048;-49
2022/01/22 09:49:10;;;;;;;6.38;2.15;;;6.60;99.90;;;;;;5071669;28;20048;-50
2022/01/22 09:51:36;;;;;;;5.22;2.13;;;6.60;99.90;;;;;;5065619;28;20182;-53
2022/01/22 09:54:02;;;;;;;6.55;2.25;;;6.70;99.90;;;;;;5053192;28;20120;-50
2022/01/22 09:56:30;;;;;;;5.55;2.20;;;6.60;99.90;;;;;;5060074;28;20143;-51
2022/01/22 09:58:55;;;;;;;5.40;2.25;;;6.60;99.90;;;;;;5065922;28;20056;-48
2022/01/22 10:01:22;;;;;;;5.07;2.17;;;6.60;99.90;;;;;;5066954;28;20039;-51
2022/01/22 10:03:48;;;;;;;6.65;2.40;;;6.60;99.90;;;;;;5058582;28;20945;-49
2022/01/22 10:06:16;;;;;;;12.02;3.30;;;6.70;99.90;;;;;;5064565;28;20049;-51
2022/01/22 10:08:42;;;;;;;8.45;2.97;;;6.70;99.90;;;;;;5063032;28;20125;-52
2022/01/22 10:11:19;;;;;;;6.20;2.85;;;6.80;99.90;;;;;;5062151;28;20086;-52
2022/01/22 10:13:52;;;;;;;10.05;2.83;;;6.80;99.90;;;;;;5059802;28;20048;-51
2022/01/22 10:16:28;;;;;;;9.88;2.97;;;6.80;99.90;;;;;;5063825;28;20085;-50
2022/01/22 10:19:16;;;;;;;10.30;2.85;;;6.80;99.90;;;;;;5060127;28;20067;-50
2022/01/22 10:22:00;;;;;;;8.95;2.67;;;6.90;99.90;;;;;;5059967;28;20369;-54
2022/01/22 10:24:45;;;;;;;10.95;2.88;;;6.90;99.90;;;;;;5054436;28;20041;-51
2022/01/22 10:27:20;;;;;;;6.53;2.45;;;6.90;99.90;;;;;;5068235;28;20512;-50
2022/01/22 10:29:52;;;;;;;14.55;2.95;;;6.90;99.90;;;;;;5060696;28;20174;-48
2022/01/22 10:32:24;;;;;;;8.38;3.03;;;6.90;99.90;;;;;;5061767;28;20487;-52
2022/01/22 10:35:06;;;;;;;8.73;2.80;;;6.90;99.90;;;;;;5061545;28;20033;-47
2022/01/22 10:37:31;;;;;;;10.00;3.20;;;7.00;99.90;;;;;;5072382;28;20044;-49
2022/01/22 10:40:17;;;;;;;9.88;2.60;;;7.00;99.90;;;;;;5064166;28;20442;-51
2022/01/22 10:42:42;;;;;;;8.75;3.05;;;7.00;99.90;;;;;;5072443;28;20041;-50
2022/01/22 10:45:12;;;;;;;8.80;2.72;;;7.10;99.90;;;;;;5072803;28;20045;-48
2022/01/22 10:47:38;;;;;;;5.45;2.70;;;7.10;99.90;;;;;;5060632;28;20037;-52
2022/01/22 10:50:18;;;;;;;9.23;2.92;;;7.20;99.90;;;;;;5072369;28;20044;-49
2022/01/22 10:52:52;;;;;;;11.77;3.38;;;7.20;99.90;;;;;;5071288;28;20055;-52
2022/01/22 10:55:19;;;;;;;11.80;3.45;;;7.30;99.90;;;;;;5070670;28;20050;-53
2022/01/22 10:58:04;;;;;;;7.45;3.40;;;7.30;99.90;;;;;;5071058;28;20044;-49
2022/01/22 11:00:29;;;;;;;9.02;3.20;;;7.30;99.90;;;;;;5068727;28;20044;-49
2022/01/22 11:02:55;;;;;;;10.75;3.40;;;7.30;99.90;;;;;;5055850;28;20660;-50
2022/01/22 11:05:38;;;;;;;6.38;2.65;;;7.30;99.90;;;;;;5066405;28;20072;-52
2022/01/22 11:08:08;;;;;;;7.15;3.67;;;7.30;99.90;;;;;;5063668;28;20052;-49
2022/01/22 11:10:34;;;;;;;7.13;3.50;;;7.40;99.90;;;;;;5064779;28;20128;-48
2022/01/22 11:13:00;;;;;;;8.68;3.92;;;7.50;99.90;;;;;;5065962;28;20164;-49
2022/01/22 11:15:27;;;;;;;11.07;3.75;;;7.40;99.90;;;;;;5070232;28;20056;-51
2022/01/22 11:17:54;;;;;;;8.40;3.40;;;7.40;99.90;;;;;;5065251;28;20041;-48
2022/01/22 11:20:21;;;;;;;12.27;3.77;;;7.40;99.90;;;;;;5069641;28;20302;-50
2022/01/22 11:22:47;;;;;;;12.48;3.50;;;7.40;99.90;;;;;;5064462;28;20144;-51
2022/01/22 11:25:14;;;;;;;9.45;3.33;;;7.40;99.90;;;;;;5069535;28;20413;-52
2022/01/22 11:27:40;;;;;;;12.05;3.60;;;7.50;99.90;;;;;;5068560;28;20045;-50
2022/01/22 11:30:08;;;;;;;8.88;3.45;;;7.50;99.90;;;;;;5075868;28;20037;-51
2022/01/22 11:32:42;;;;;;;8.68;3.15;;;7.40;99.90;;;;;;5074225;28;20099;-48
2022/01/22 11:35:09;;;;;;;9.95;3.72;;;7.40;99.90;;;;;;5062370;28;20048;-48
2022/01/22 11:37:48;;;;;;;9.97;3.93;;;7.40;99.90;;;;;;5072123;28;20075;-53
2022/01/22 11:40:17;;;;;;;11.43;4.38;;;7.40;99.90;;;;;;5086174;28;20322;-53
2022/01/22 11:43:06;;;;;;;14.38;4.80;;;7.30;99.90;;;;;;5087079;28;20074;-55
2022/01/22 11:45:54;;;;;;;15.13;4.80;;;7.30;99.90;;;;;;5085860;28;20043;-53
2022/01/22 11:48:30;;;;;;;12.55;4.40;;;7.20;99.90;;;;;;5085180;28;20044;-53
2022/01/22 11:51:22;;;;;;;14.27;4.75;;;7.20;99.90;;;;;;5088466;28;20040;-53
2022/01/22 11:53:56;;;;;;;15.93;4.82;;;7.10;99.90;;;;;;5082212;28;20090;-54
2022/01/22 11:56:26;;;;;;;16.75;5.10;;;7.10;99.90;;;;;;5091398;28;20044;-51
2022/01/22 11:58:58;;;;;;;14.00;5.22;;;7.10;99.90;;;;;;5086165;28;20040;-53
2022/01/22 12:01:50;;;;;;;13.85;4.45;;;7.10;99.90;;;;;;5090395;28;20033;-56
2022/01/22 12:04:17;;;;;;;16.45;4.80;;;7.10;99.90;;;;;;5086866;28;20127;-54
2022/01/22 12:07:01;;;;;;;12.30;4.93;;;7.10;99.90;;;;;;5085429;28;20057;-53
2022/01/22 12:09:31;;;;;;;15.40;4.93;;;7.10;99.90;;;;;;5089532;28;20372;-54
2022/01/22 12:15:04;;;;;;;15.52;5.72;;;7.10;99.90;;;;;;5084049;28;20069;-53
2022/01/22 12:17:52;;;;;;;17.80;6.22;;;7.00;99.90;;;;;;5083412;28;20036;-55
2022/01/22 12:21:30;;;;;;;17.52;6.78;;;7.00;99.90;;;;;;5084812;28;20049;-53
2022/01/22 12:23:31;;;;;;;16.05;6.85;;;7.00;99.90;;;;;;5085760;28;20090;-56
2022/01/22 12:26:03;;;;;;;23.70;7.75;;;7.00;99.90;;;;;;5081550;28;20045;-56
2022/01/22 12:28:40;;;;;;;20.63;7.70;;;6.90;99.90;;;;;;5082456;28;20412;-54
2022/01/22 12:31:10;;;;;;;19.05;9.98;;;6.90;99.90;;;;;;5093583;28;20045;-56
2022/01/22 12:33:38;;;;;;;17.50;7.07;;;7.00;99.90;;;;;;5091297;28;20036;-51
2022/01/22 12:36:18;;;;;;;20.25;6.60;;;6.90;99.90;;;;;;5081692;28;20144;-53
2022/01/22 12:38:56;;;;;;;19.65;8.73;;;6.90;99.90;;;;;;5085716;28;20040;-52
2022/01/22 12:47:01;;;;;;;14.73;6.20;;;6.90;99.90;;;;;;5081207;28;20110;-52
2022/01/22 12:49:28;;;;;;;16.30;6.45;;;7.00;99.90;;;;;;5084073;28;20037;-54
2022/01/22 12:52:04;;;;;;;20.03;6.57;;;7.00;99.90;;;;;;5088639;28;20041;-53
2022/01/22 12:54:32;;;;;;;14.27;5.43;;;7.00;99.90;;;;;;5088794;28;20040;-52
2022/01/22 12:57:09;;;;;;;16.05;5.95;;;7.00;99.90;;;;;;5087462;28;20068;-54
2022/01/22 13:00:16;;;;;;;17.27;6.43;;;7.00;99.90;;;;;;5085264;28;20055;-51
2022/01/22 13:02:43;;;;;;;20.23;5.88;;;7.00;99.90;;;;;;5084273;28;20661;-53
2022/01/22 13:05:11;;;;;;;14.38;5.70;;;7.00;99.90;;;;;;5085583;28;20163;-54
2022/01/22 13:07:54;;;;;;;14.23;5.90;;;7.00;99.90;;;;;;5086025;28;20048;-52
2022/01/22 13:10:28;;;;;;;17.45;6.07;;;7.00;99.90;;;;;;5088120;28;20038;-52
2022/01/22 13:12:56;;;;;;;18.55;7.15;;;7.00;99.90;;;;;;5084576;28;20112;-54
2022/01/22 13:15:22;;;;;;;14.65;6.72;;;7.00;99.90;;;;;;5089314;28;20031;-51
2022/01/22 13:17:55;;;;;;;17.98;7.25;;;6.90;99.90;;;;;;5089370;28;20083;-50
2022/01/22 13:20:24;;;;;;;22.67;8.05;;;6.90;99.90;;;;;;5086491;28;20064;-51
2022/01/22 13:22:50;;;;;;;15.02;6.20;;;6.90;99.90;;;;;;5080695;28;20036;-52
2022/01/22 13:25:18;;;;;;;18.50;6.78;;;6.90;99.90;;;;;;5088077;28;20044;-54
2022/01/22 13:28:02;;;;;;;13.77;5.67;;;6.90;99.90;;;;;;5092803;28;20081;-53
2022/01/22 13:30:37;;;;;;;14.18;5.55;;;6.80;99.90;;;;;;5078212;28;20047;-51
2022/01/22 13:33:38;;;;;;;16.52;5.45;;;6.90;99.90;;;;;;5084102;28;20079;-51
2022/01/22 13:36:33;;;;;;;14.35;5.25;;;6.90;99.90;;;;;;5087258;28;20097;-52
2022/01/22 13:39:33;;;;;;;19.00;5.38;;;6.90;99.90;;;;;;5088475;28;20037;-55
2022/01/22 13:47:45;;;;;;;18.33;5.30;;;7.10;99.90;;;;;;5082713;28;20063;-53
2022/01/22 13:50:11;;;;;;;13.25;5.20;;;7.00;99.90;;;;;;5084785;28;20096;-50
2022/01/22 13:52:37;;;;;;;16.38;5.30;;;7.00;99.90;;;;;;5082823;28;20064;-49
2022/01/22 13:55:03;;;;;;;16.50;5.43;;;7.00;99.90;;;;;;5089129;28;20039;-54
2022/01/22 13:57:35;;;;;;;13.07;4.72;;;7.00;99.90;;;;;;5096483;28;20044;-51
2022/01/22 14:00:09;;;;;;;11.95;4.50;;;7.00;99.90;;;;;;5093620;28;20032;-50
2022/01/22 14:05:27;;;;;;;8.50;3.53;;;6.90;99.90;;;;;;5094289;28;20063;-52
2022/01/22 14:08:08;;;;;;;9.65;3.47;;;6.90;99.90;;;;;;5092314;28;20029;-53
2022/01/22 14:10:35;;;;;;;13.52;3.90;;;6.90;99.90;;;;;;5090628;28;20036;-54
2022/01/22 14:13:08;;;;;;;10.35;3.55;;;6.90;99.90;;;;;;5084488;28;20036;-52
2022/01/22 14:15:45;;;;;;;11.18;3.33;;;6.90;99.90;;;;;;5089011;28;20033;-51
2022/01/22 14:18:15;;;;;;;10.23;3.60;;;6.90;99.90;;;;;;5086679;28;20067;-53
2022/01/22 14:20:45;;;;;;;13.75;3.88;;;6.90;99.90;;;;;;5087523;28;20110;-49
2022/01/22 14:23:16;;;;;;;14.05;3.67;;;6.90;99.90;;;;;;5082504;28;20067;-54
2022/01/22 14:26:09;;;;;;;12.15;3.78;;;6.90;99.90;;;;;;5090211;28;20033;-51
2022/01/22 14:29:07;;;;;;;11.52;3.60;;;6.90;99.90;;;;;;5087091;28;20029;-49
2022/01/22 14:31:34;;;;;;;13.30;3.53;;;6.90;99.90;;;;;;5090102;28;20071;-48
2022/01/22 14:34:05;;;;;;;12.57;4.43;;;6.90;99.90;;;;;;5084844;28;20048;-51
2022/01/22 14:36:47;;;;;;;10.68;3.83;;;6.90;99.90;;;;;;5084427;28;20051;-53
2022/01/22 14:44:48;;;;;;;8.07;3.28;;;6.90;99.90;;;;;;5082505;28;20119;-51
2022/01/22 14:47:27;;;;;;;15.95;3.67;;;6.90;99.90;;;;;;5097756;28;20048;-53
2022/01/22 14:50:07;;;;;;;10.63;3.25;;;6.80;99.90;;;;;;5076500;28;20024;-50
2022/01/22 14:52:33;;;;;;;13.18;2.88;;;6.80;99.90;;;;;;5079462;28;20028;-48
2022/01/22 14:55:03;;;;;;;13.07;3.03;;;6.80;99.90;;;;;;5096772;28;20028;-52
2022/01/22 14:57:33;;;;;;;7.95;2.65;;;6.80;99.90;;;;;;5096432;28;20044;-52
2022/01/22 15:00:05;;;;;;;10.20;2.95;;;6.80;99.90;;;;;;5095463;28;20040;-50
2022/01/22 15:02:31;;;;;;;12.40;2.88;;;6.80;99.90;;;;;;5095876;28;20055;-49
2022/01/22 15:04:57;;;;;;;9.73;3.00;;;6.70;99.90;;;;;;5095959;28;20020;-49
2022/01/22 15:07:22;;;;;;;12.80;2.92;;;6.70;99.90;;;;;;5096060;28;20078;-50
2022/01/22 15:09:49;;;;;;;12.98;2.83;;;6.70;99.90;;;;;;5096151;28;20028;-51
2022/01/22 15:12:17;;;;;;;10.88;2.80;;;6.70;99.90;;;;;;5095832;28;20056;-51
2022/01/22 15:14:47;;;;;;;10.75;2.88;;;6.70;99.90;;;;;;5083384;28;20104;-51
2022/01/22 15:17:27;;;;;;;10.13;2.10;;;6.70;99.90;;;;;;5081037;28;20051;-50
2022/01/22 15:19:53;;;;;;;8.40;2.38;;;6.70;99.90;;;;;;5095541;28;20025;-49
2022/01/22 15:22:19;;;;;;;8.90;2.00;;;6.60;99.90;;;;;;5095150;28;20040;-50
2022/01/22 15:24:51;;;;;;;10.20;2.30;;;6.60;99.90;;;;;;5095039;28;20104;-50
2022/01/22 15:27:19;;;;;;;7.60;1.90;;;6.60;99.90;;;;;;5099565;28;20173;-52